createdAt,value
2022-09-06T00:01:29.728Z,99.90
2022-09-06T00:04:34.263Z,99.90
2022-09-06T00:07:38.704Z,99.90
2022-09-06T00:10:43.605Z,99.90
2022-09-06T00:13:48.161Z,99.90
2022-09-06T00:16:52.556Z,99.90
2022-09-06T00:19:56.808Z,99.90
2022-09-06T00:23:04.259Z,99.90
2022-09-06T00:26:08.919Z,99.90
2022-09-06T00:29:13.443Z,99.90
2022-09-06T00:32:17.963Z,99.90
2022-09-06T00:35:24.745Z,99.90
2022-09-06T00:38:29.431Z,99.90
2022-09-06T00:41:34.001Z,99.90
2022-09-06T00:44:38.897Z,99.90
2022-09-06T00:47:44.410Z,99.90
2022-09-06T00:50:52.095Z,99.90
2022-09-06T00:53:57.024Z,99.90
2022-09-06T00:57:02.192Z,99.90
2022-09-06T01:00:09.583Z,99.90
2022-09-06T01:03:14.467Z,99.90
2022-09-06T01:06:18.582Z,99.90
2022-09-06T01:09:50.597Z,99.90
2022-09-06T01:12:55.623Z,99.90
2022-09-06T01:16:12.853Z,99.90
2022-09-06T01:19:47.588Z,99.90
2022-09-06T01:23:16.838Z,99.90
2022-09-06T01:26:50.371Z,99.90
2022-09-06T01:30:00.292Z,99.90
2022-09-06T01:33:22.328Z,99.90
2022-09-06T01:36:32.599Z,99.90
2022-09-06T01:39:38.905Z,99.90
2022-09-06T01:42:46.216Z,99.90
2022-09-06T01:46:07.357Z,99.90
2022-09-06T01:49:11.828Z,99.90
2022-09-06T01:52:25.128Z,99.90
2022-09-06T01:55:37.369Z,99.90
2022-09-06T01:58:50.790Z,99.90
2022-09-06T02:02:06.282Z,99.90
2022-09-06T02:05:20.782Z,99.90
2022-09-06T02:08:41.143Z,99.90
2022-09-06T02:11:50.814Z,99.90
2022-09-06T02:15:03.496Z,99.90
2022-09-06T02:18:19.929Z,99.90
2022-09-06T02:21:31.615Z,99.90
2022-09-06T02:24:38.873Z,99.90
2022-09-06T02:27:43.670Z,99.90
2022-09-06T02:30:53.249Z,99.90
2022-09-06T02:33:58.526Z,99.90
2022-09-06T02:37:03.477Z,99.90
2022-09-06T02:40:09.031Z,99.90
2022-09-06T02:43:13.595Z,99.90
2022-09-06T02:46:17.978Z,99.90
2022-09-06T02:49:22.599Z,99.90
2022-09-06T02:52:27.474Z,99.90
2022-09-06T02:55:32.408Z,99.90
2022-09-06T02:58:36.980Z,99.90
2022-09-06T03:01:41.541Z,99.90
2022-09-06T03:04:45.955Z,99.90
2022-09-06T03:07:51.213Z,99.90
2022-09-06T03:10:56.853Z,99.90
2022-09-06T03:14:01.404Z,99.90
2022-09-06T03:17:06.077Z,99.90
2022-09-06T03:20:11.922Z,99.90
2022-09-06T03:23:16.459Z,99.90
2022-09-06T03:26:21.088Z,99.90
2022-09-06T03:29:25.714Z,99.90
2022-09-06T03:32:30.375Z,99.90
2022-09-06T03:35:34.794Z,99.90
2022-09-06T03:38:40.093Z,99.90
2022-09-06T03:41:44.647Z,99.90
2022-09-06T03:44:48.933Z,99.90
2022-09-06T03:47:53.388Z,99.90
2022-09-06T03:50:59.718Z,99.90
2022-09-06T03:54:04.871Z,99.90
2022-09-06T03:57:09.896Z,99.90
2022-09-06T04:00:14.923Z,99.90
2022-09-06T04:03:20.128Z,99.90
2022-09-06T04:06:24.573Z,99.90
2022-09-06T04:09:29.225Z,99.90
2022-09-06T04:12:34.937Z,99.90
2022-09-06T04:15:39.414Z,99.90
2022-09-06T04:18:43.745Z,99.90
2022-09-06T04:21:48.186Z,99.90
2022-09-06T04:24:52.869Z,99.90
2022-09-06T04:27:57.787Z,99.90
2022-09-06T04:31:05.263Z,99.90
2022-09-06T04:34:09.783Z,99.90
2022-09-06T04:37:17.924Z,99.90
2022-09-06T04:40:22.699Z,99.90
2022-09-06T04:43:27.277Z,99.90
2022-09-06T04:46:32.108Z,99.90
2022-09-06T04:49:36.760Z,99.90
2022-09-06T04:52:41.137Z,99.90
2022-09-06T04:55:45.635Z,99.90
2022-09-06T04:58:51.477Z,99.90
2022-09-06T05:01:56.338Z,99.90
2022-09-06T05:05:01.125Z,99.90
2022-09-06T05:08:06.006Z,99.90
2022-09-06T05:11:11.222Z,99.90
2022-09-06T05:14:15.493Z,99.90
2022-09-06T05:17:19.973Z,99.90
2022-09-06T05:20:24.360Z,99.90
2022-09-06T05:23:29.274Z,99.90
2022-09-06T05:26:34.086Z,99.90
2022-09-06T05:29:39.019Z,99.90
2022-09-06T05:32:43.260Z,99.90
2022-09-06T05:35:48.891Z,99.90
2022-09-06T05:38:55.022Z,99.90
2022-09-06T05:42:00.599Z,99.90
2022-09-06T05:45:06.797Z,99.90
2022-09-06T05:48:11.590Z,99.90
2022-09-06T05:51:16.171Z,99.90
2022-09-06T05:54:20.770Z,99.90
2022-09-06T05:57:25.287Z,99.90
2022-09-06T06:00:30.085Z,99.90
2022-09-06T06:03:34.795Z,99.90
2022-09-06T06:06:39.473Z,99.90
2022-09-06T06:09:44.231Z,99.90
2022-09-06T06:12:50.035Z,99.90
2022-09-06T06:15:54.628Z,99.90
2022-09-06T06:18:59.094Z,99.90
2022-09-06T06:22:03.775Z,99.90
2022-09-06T06:25:08.333Z,99.90
2022-09-06T06:28:13.052Z,99.90
2022-09-06T06:31:18.060Z,99.90
2022-09-06T06:34:22.588Z,99.90
2022-09-06T06:37:27.255Z,99.90
2022-09-06T06:40:31.680Z,99.90
2022-09-06T06:43:37.804Z,99.90
2022-09-06T06:46:42.324Z,99.90
2022-09-06T06:49:46.694Z,99.90
2022-09-06T06:52:50.972Z,99.90
2022-09-06T06:55:55.325Z,99.90
2022-09-06T06:59:01.124Z,99.90
2022-09-06T07:02:06.847Z,99.90
2022-09-06T07:08:39.825Z,99.90
2022-09-06T07:11:44.863Z,99.90
2022-09-06T07:14:49.102Z,99.90
2022-09-06T07:17:56.950Z,99.90
2022-09-06T07:24:25.592Z,99.90
2022-09-06T07:30:55.112Z,99.90
2022-09-06T07:33:59.953Z,99.90
2022-09-06T07:37:05.368Z,99.90
2022-09-06T07:40:10.598Z,99.90
2022-09-06T07:43:15.349Z,99.90
2022-09-06T07:46:20.063Z,99.90
2022-09-06T07:49:24.616Z,99.90
2022-09-06T07:55:53.428Z,99.90
2022-09-06T07:58:58.103Z,99.90
2022-09-06T08:02:02.742Z,99.90
2022-09-06T08:11:56.292Z,99.90
2022-09-06T08:15:00.712Z,99.90
2022-09-06T08:18:05.248Z,99.90
2022-09-06T08:21:12.956Z,99.90
2022-09-06T08:24:17.238Z,99.90
2022-09-06T08:27:21.417Z,99.90
2022-09-06T08:30:27.647Z,99.90
2022-09-06T08:33:32.201Z,99.90
2022-09-06T08:36:36.619Z,99.90
2022-09-06T08:39:41.251Z,99.90
2022-09-06T08:42:45.946Z,99.90
2022-09-06T08:45:57.264Z,99.90
2022-09-06T08:49:02.047Z,99.90
2022-09-06T08:52:06.292Z,99.90
2022-09-06T08:55:36.067Z,99.90
2022-09-06T08:58:52.290Z,99.90
2022-09-06T09:02:17.891Z,99.90
2022-09-06T09:05:34.415Z,99.90
2022-09-06T09:09:06.234Z,99.90
2022-09-06T09:12:16.191Z,99.90
2022-09-06T09:15:21.787Z,99.90
2022-09-06T09:18:31.013Z,99.90
2022-09-06T09:21:38.750Z,99.90
2022-09-06T09:24:43.513Z,99.40
2022-09-06T09:27:57.101Z,99.90
2022-09-06T09:31:01.440Z,99.90
2022-09-06T09:34:10.528Z,99.90
2022-09-06T09:40:53.911Z,99.00
2022-09-06T09:44:04.675Z,98.60
2022-09-06T09:47:30.670Z,98.10
2022-09-06T09:50:35.799Z,99.10
2022-09-06T09:53:54.503Z,98.60
2022-09-06T09:56:58.929Z,99.10
2022-09-06T10:00:06.856Z,97.50
2022-09-06T10:03:17.070Z,97.00
2022-09-06T10:10:05.263Z,99.10
2022-09-06T10:13:26.511Z,98.60
2022-09-06T10:16:47.321Z,98.00
2022-09-06T10:19:52.271Z,99.40
2022-09-06T10:23:04.812Z,98.20
2022-09-06T10:26:15.513Z,99.90
2022-09-06T10:29:32.073Z,99.50
2022-09-06T10:33:00.290Z,97.30
2022-09-06T10:36:04.813Z,96.10
2022-09-06T10:39:41.910Z,98.00
2022-09-06T10:42:53.835Z,97.50
2022-09-06T10:46:02.849Z,97.80
2022-09-06T10:49:14.655Z,95.80
2022-09-06T10:52:26.902Z,95.80
2022-09-06T10:55:32.512Z,95.80
2022-09-06T11:02:45.776Z,94.10
2022-09-06T11:05:58.949Z,93.80
2022-09-06T11:09:03.379Z,95.00
2022-09-06T11:12:12.132Z,94.50
2022-09-06T11:15:19.207Z,94.20
2022-09-06T11:18:36.537Z,93.10
2022-09-06T11:22:00.839Z,92.90
2022-09-06T11:25:39.965Z,92.50
2022-09-06T11:28:49.055Z,93.30
2022-09-06T11:35:32.548Z,93.70
2022-09-06T11:38:37.131Z,94.50
2022-09-06T11:41:42.619Z,91.80
2022-09-06T11:44:50.285Z,91.70
2022-09-06T11:47:54.635Z,91.90
2022-09-06T11:50:59.074Z,92.00
2022-09-06T11:54:21.760Z,92.80
2022-09-06T11:57:27.526Z,93.70
2022-09-06T12:00:32.610Z,92.80
2022-09-06T12:07:10.776Z,94.20
2022-09-06T12:10:30.571Z,94.50
2022-09-06T12:13:49.925Z,94.60
2022-09-06T12:16:57.683Z,94.90
2022-09-06T12:20:07.492Z,95.90
2022-09-06T12:23:35.036Z,96.30
2022-09-06T12:27:09.211Z,95.60
2022-09-06T12:30:31.730Z,95.20
2022-09-06T12:33:38.792Z,95.70
2022-09-06T12:36:54.399Z,96.30
2022-09-06T12:40:00.140Z,97.40
2022-09-06T12:43:05.229Z,97.20
2022-09-06T12:46:09.793Z,97.50
2022-09-06T12:49:17.631Z,97.30
2022-09-06T12:52:23.538Z,98.40
2022-09-06T12:55:32.674Z,98.80
2022-09-06T12:58:38.762Z,99.20
2022-09-06T13:02:11.805Z,98.40
2022-09-06T13:05:16.369Z,99.00
2022-09-06T13:08:38.080Z,99.10
2022-09-06T13:11:48.781Z,98.90
2022-09-06T13:14:58.219Z,99.10
2022-09-06T13:18:27.041Z,98.70
2022-09-06T13:21:32.942Z,96.90
2022-09-06T13:24:46.336Z,96.90
2022-09-06T13:27:57.744Z,95.20
2022-09-06T13:31:08.558Z,94.40
2022-09-06T13:34:27.163Z,95.70
2022-09-06T13:37:35.369Z,97.10
2022-09-06T13:41:09.313Z,97.90
2022-09-06T13:44:11.627Z,97.50
2022-09-06T13:47:16.835Z,98.30
2022-09-06T13:50:24.691Z,98.40
2022-09-06T13:53:32.468Z,97.70
2022-09-06T13:56:39.234Z,97.10
2022-09-06T13:59:43.594Z,95.70
2022-09-06T14:02:49.520Z,95.20
2022-09-06T14:05:54.094Z,95.00
2022-09-06T14:09:07.743Z,95.70
2022-09-06T14:12:12.818Z,96.10
2022-09-06T14:15:17.496Z,95.90
2022-09-06T14:18:21.835Z,98.10
2022-09-06T14:21:26.565Z,98.80
2022-09-06T14:24:31.355Z,99.50
2022-09-06T14:27:35.880Z,99.90
2022-09-06T14:30:40.575Z,99.90
2022-09-06T14:33:45.455Z,99.90
2022-09-06T14:36:50.342Z,99.90
2022-09-06T14:39:54.790Z,99.90
2022-09-06T14:42:59.517Z,99.90
2022-09-06T14:46:05.270Z,99.90
2022-09-06T14:49:10.262Z,99.90
2022-09-06T14:52:14.956Z,99.90
2022-09-06T14:55:19.531Z,99.90
2022-09-06T14:58:23.964Z,99.90
2022-09-06T15:01:35.743Z,99.90
2022-09-06T15:04:43.060Z,99.90
2022-09-06T15:07:47.983Z,99.90
2022-09-06T15:10:54.436Z,99.90
2022-09-06T15:13:59.133Z,99.90
2022-09-06T15:17:08.703Z,99.90
2022-09-06T15:20:13.208Z,99.90
2022-09-06T15:23:25.696Z,99.90
2022-09-06T15:26:31.202Z,99.90
2022-09-06T15:29:35.417Z,99.90
2022-09-06T15:32:39.960Z,99.90
2022-09-06T15:35:44.786Z,99.50
2022-09-06T15:38:52.278Z,99.20
2022-09-06T15:41:57.850Z,99.90
2022-09-06T15:45:03.012Z,99.90
2022-09-06T15:48:07.869Z,99.90
2022-09-06T15:51:14.939Z,99.90
2022-09-06T15:54:40.732Z,99.90
2022-09-06T15:57:46.670Z,99.60
2022-09-06T16:01:08.127Z,99.90
2022-09-06T16:04:12.421Z,96.20
2022-09-06T16:07:17.078Z,94.50
2022-09-06T16:10:22.109Z,96.60
2022-09-06T16:13:32.826Z,97.70
2022-09-06T16:16:38.385Z,99.90
2022-09-06T16:19:44.591Z,99.90
2022-09-06T16:22:49.564Z,99.90
2022-09-06T16:25:54.383Z,99.90
2022-09-06T16:28:59.542Z,99.90
2022-09-06T16:32:04.312Z,99.90
2022-09-06T16:35:08.965Z,99.90
2022-09-06T16:38:14.017Z,99.90
2022-09-06T16:41:40.545Z,99.90
2022-09-06T16:44:45.050Z,99.90
2022-09-06T16:47:50.178Z,99.90
2022-09-06T16:50:55.180Z,99.90
2022-09-06T16:54:00.903Z,99.90
2022-09-06T16:57:05.235Z,99.90
2022-09-06T17:00:11.279Z,99.90
2022-09-06T17:03:15.923Z,99.90
2022-09-06T17:06:21.933Z,99.90
2022-09-06T17:09:26.506Z,99.90
2022-09-06T17:12:31.237Z,99.90
2022-09-06T17:15:55.762Z,99.90
2022-09-06T17:19:01.289Z,99.90
2022-09-06T17:22:05.808Z,99.90
2022-09-06T17:25:12.151Z,99.90
2022-09-06T17:28:17.032Z,99.90
2022-09-06T17:31:25.675Z,99.90
2022-09-06T17:34:30.512Z,99.90
2022-09-06T17:37:34.846Z,99.90
2022-09-06T17:40:39.885Z,99.90
2022-09-06T17:43:44.634Z,99.90
2022-09-06T17:47:11.451Z,99.90
2022-09-06T17:50:13.840Z,99.90
2022-09-06T17:53:18.110Z,99.90
2022-09-06T17:56:23.261Z,99.90
2022-09-06T17:59:31.555Z,99.90
2022-09-06T18:02:38.774Z,99.90
2022-09-06T18:05:44.199Z,99.90
2022-09-06T18:08:50.727Z,99.90
2022-09-06T18:11:55.219Z,99.90
2022-09-06T18:15:01.978Z,99.90
2022-09-06T18:18:06.633Z,99.90
2022-09-06T18:21:11.530Z,99.90
2022-09-06T18:24:16.307Z,99.90
2022-09-06T18:27:21.017Z,99.90
2022-09-06T18:30:25.520Z,99.90
2022-09-06T18:33:30.547Z,99.90
2022-09-06T18:36:35.509Z,99.90
2022-09-06T18:39:41.832Z,99.90
2022-09-06T18:42:46.547Z,99.90
2022-09-06T18:45:50.802Z,99.90
2022-09-06T18:48:55.986Z,99.90
2022-09-06T18:52:05.281Z,99.90
2022-09-06T18:55:09.946Z,99.90
2022-09-06T18:58:14.336Z,99.90
2022-09-06T19:01:20.751Z,99.90
2022-09-06T19:04:25.498Z,99.90
2022-09-06T19:07:29.969Z,99.90
2022-09-06T19:10:34.394Z,99.90
2022-09-06T19:13:41.541Z,99.90
2022-09-06T19:16:46.607Z,99.90
2022-09-06T19:19:51.244Z,99.90
2022-09-06T19:22:55.763Z,99.90
2022-09-06T19:26:05.337Z,99.90
2022-09-06T19:29:19.916Z,99.90
2022-09-06T19:32:24.714Z,99.90
2022-09-06T19:35:29.071Z,99.90
2022-09-06T19:38:52.603Z,99.90
2022-09-06T19:41:58.326Z,99.90
2022-09-06T19:45:02.745Z,99.90
2022-09-06T19:48:08.325Z,99.90
2022-09-06T19:51:14.628Z,99.90
2022-09-06T19:54:19.722Z,99.90
2022-09-06T19:57:24.282Z,99.90
2022-09-06T20:00:32.318Z,99.90
2022-09-06T20:03:41.633Z,99.90
2022-09-06T20:06:46.690Z,99.90
2022-09-06T20:09:52.601Z,99.90
2022-09-06T20:12:57.355Z,99.90
2022-09-06T20:16:07.441Z,99.90
2022-09-06T20:19:12.998Z,99.90
2022-09-06T20:22:17.754Z,99.90
2022-09-06T20:25:22.312Z,99.90
2022-09-06T20:28:27.642Z,99.90
2022-09-06T20:31:33.157Z,99.90
2022-09-06T20:34:37.958Z,99.90
2022-09-06T20:37:42.250Z,99.90
2022-09-06T20:40:46.902Z,99.90
2022-09-06T20:43:52.409Z,99.90
2022-09-06T20:46:56.982Z,99.90
2022-09-06T20:50:01.726Z,99.90
2022-09-06T20:53:06.166Z,99.90
2022-09-06T20:56:19.578Z,99.90
2022-09-06T20:59:24.315Z,99.90
2022-09-06T21:02:28.856Z,99.90
2022-09-06T21:05:33.323Z,99.90
2022-09-06T21:08:42.390Z,99.90
2022-09-06T21:11:47.643Z,99.90
2022-09-06T21:14:51.997Z,99.90
2022-09-06T21:17:56.744Z,99.90
2022-09-06T21:21:06.767Z,99.90
2022-09-06T21:24:12.293Z,99.90
2022-09-06T21:27:16.722Z,99.90
2022-09-06T21:30:21.398Z,99.90
2022-09-06T21:33:28.492Z,99.90
2022-09-06T21:36:35.743Z,99.90
2022-09-06T21:39:40.324Z,99.90
2022-09-06T21:42:44.758Z,99.90
2022-09-06T21:45:49.519Z,99.90
2022-09-06T21:48:55.125Z,99.90
2022-09-06T21:52:00.211Z,99.90
2022-09-06T21:55:06.031Z,99.90
2022-09-06T21:58:12.088Z,99.90
2022-09-06T22:01:16.809Z,99.90
2022-09-06T22:04:21.206Z,99.90
2022-09-06T22:07:25.758Z,99.90
2022-09-06T22:10:30.233Z,99.90
2022-09-06T22:13:34.596Z,99.90
2022-09-06T22:16:40.358Z,99.90
2022-09-06T22:19:44.976Z,99.90
2022-09-06T22:22:50.138Z,99.90
2022-09-06T22:26:07.383Z,99.90
2022-09-06T22:29:13.639Z,99.90
2022-09-06T22:32:19.444Z,99.90
2022-09-06T22:35:24.372Z,99.90
2022-09-06T22:38:30.119Z,99.90
2022-09-06T22:41:35.279Z,99.90
2022-09-06T22:44:40.715Z,99.90
2022-09-06T22:47:45.086Z,99.90
2022-09-06T22:50:49.715Z,99.90
2022-09-06T22:53:54.412Z,99.90
2022-09-06T22:56:59.143Z,99.90
2022-09-06T23:00:06.284Z,99.90
2022-09-06T23:03:10.898Z,99.90
2022-09-06T23:06:15.786Z,99.90
2022-09-06T23:09:20.439Z,99.90
2022-09-06T23:12:24.975Z,99.90
2022-09-06T23:15:29.490Z,99.90
2022-09-06T23:18:33.802Z,99.90
2022-09-06T23:21:38.334Z,99.90
2022-09-06T23:24:43.419Z,99.90
2022-09-06T23:27:48.406Z,99.90
2022-09-06T23:30:52.983Z,99.90
2022-09-06T23:33:59.354Z,99.90
2022-09-06T23:37:04.787Z,99.90
2022-09-06T23:40:10.319Z,99.90
2022-09-06T23:43:14.921Z,99.90
2022-09-06T23:46:19.699Z,99.90
2022-09-06T23:49:24.532Z,99.90
2022-09-06T23:52:29.274Z,99.90
2022-09-06T23:55:33.687Z,99.90
2022-09-06T23:58:38.714Z,99.90
